createdAt,value
2022-11-22T00:12:30.305Z,5.9
2022-11-22T00:26:58.842Z,6
2022-11-22T00:41:27.537Z,6.1
2022-11-22T00:55:56.547Z,6.1
2022-11-22T01:10:25.059Z,6.2
2022-11-22T01:24:57.865Z,6.4
2022-11-22T01:39:27.000Z,6.3
2022-11-22T01:53:54.793Z,6.3
2022-11-22T02:08:24.008Z,6.5
2022-11-22T02:22:53.540Z,6.6
2022-11-22T02:37:23.141Z,6.7
2022-11-22T02:51:51.897Z,6.6
2022-11-22T03:06:20.605Z,6.6
2022-11-22T03:20:47.699Z,6.6
2022-11-22T03:35:30.119Z,6.6
2022-11-22T03:49:51.150Z,6.5
2022-11-22T04:04:19.890Z,6.5
2022-11-22T04:18:49.846Z,6.3
2022-11-22T04:33:18.155Z,6.2
2022-11-22T04:47:50.584Z,6.2
2022-11-22T05:02:17.810Z,6.1
2022-11-22T05:16:45.881Z,5.8
2022-11-22T05:31:14.128Z,5.6
2022-11-22T05:45:42.434Z,5.3
2022-11-22T06:00:11.621Z,5.5
2022-11-22T06:14:43.121Z,5.2
2022-11-22T06:29:10.306Z,5.2
2022-11-22T06:43:45.269Z,5.4
2022-11-22T06:58:11.279Z,5.6
2022-11-22T07:12:40.442Z,5.3
2022-11-22T07:27:08.924Z,5.3
2022-11-22T07:41:38.020Z,5.5
2022-11-22T07:56:07.288Z,5.5
2022-11-22T08:10:37.370Z,5.6
2022-11-22T08:25:05.953Z,5.9
2022-11-22T08:39:36.771Z,6.2
2022-11-22T08:54:11.096Z,7.3
2022-11-22T09:08:44.536Z,8.7
2022-11-22T09:23:41.643Z,7.5
2022-11-22T09:38:09.040Z,6.9
2022-11-22T09:52:39.474Z,6.5
2022-11-22T10:07:09.072Z,6.9
2022-11-22T10:21:40.653Z,7.2
2022-11-22T10:36:10.292Z,7.3
2022-11-22T10:50:38.421Z,7.4
2022-11-22T11:05:08.018Z,7.4
2022-11-22T11:19:37.528Z,7.5
2022-11-22T11:34:07.064Z,7.6
2022-11-22T11:48:36.289Z,7.5
2022-11-22T12:03:06.292Z,7.8
2022-11-22T12:17:34.776Z,7.8
2022-11-22T12:32:03.667Z,7.8
2022-11-22T12:46:33.268Z,8
2022-11-22T13:01:05.874Z,8.1
2022-11-22T13:15:34.547Z,8.1
2022-11-22T13:30:02.948Z,7.9
2022-11-22T13:44:32.467Z,7.6
2022-11-22T13:59:02.105Z,7.7
2022-11-22T14:13:31.974Z,7.8
2022-11-22T14:28:01.428Z,7.8
2022-11-22T14:42:29.486Z,7.8
2022-11-22T14:57:02.807Z,7.8
2022-11-22T15:11:29.197Z,7.7
2022-11-22T16:10:44.756Z,7.6
2022-11-22T16:25:13.251Z,7.4
2022-11-22T16:39:41.393Z,7.4
2022-11-22T16:54:12.468Z,7.5
2022-11-22T17:08:42.028Z,7.5
2022-11-22T17:23:10.321Z,7.4
2022-11-22T17:37:40.205Z,7.4
2022-11-22T17:52:11.757Z,7.6
2022-11-22T18:06:38.645Z,7.4
2022-11-22T18:21:11.527Z,7.5
2022-11-22T18:35:41.855Z,7.6
2022-11-22T18:50:12.219Z,7.5
2022-11-22T19:04:42.627Z,7.5
2022-11-22T19:19:14.460Z,7.5
2022-11-22T19:33:42.304Z,7.5
2022-11-22T19:48:10.858Z,7.5
2022-11-22T20:02:40.231Z,7.6
2022-11-22T20:17:10.525Z,7.6
2022-11-22T20:31:38.811Z,7.7
2022-11-22T20:46:06.081Z,7.6
2022-11-22T21:00:35.731Z,7.7
2022-11-22T21:15:05.285Z,7.7
2022-11-22T21:29:34.541Z,7.7
2022-11-22T21:44:02.938Z,7.7
2022-11-22T21:58:31.871Z,7.7
2022-11-22T22:13:01.327Z,7.7
2022-11-22T22:27:30.620Z,7.8
2022-11-22T22:41:59.930Z,7.8
2022-11-22T22:56:29.382Z,7.9
2022-11-22T23:10:58.684Z,7.8
2022-11-22T23:25:27.648Z,7.8
2022-11-22T23:39:55.308Z,7.8
2022-11-22T23:54:23.308Z,7.8
